sensor_id;sensor_type;location;lat;lon;timestamp;temperature;humidity
11736;DHT22;5924;51.398;7.088;2023-07-13T00:04:13;15.20;99.90
11736;DHT22;5924;51.398;7.088;2023-07-13T00:06:39;15.10;99.90
11736;DHT22;5924;51.398;7.088;2023-07-13T00:09:05;15.10;99.90
11736;DHT22;5924;51.398;7.088;2023-07-13T00:11:31;15.10;99.90
11736;DHT22;5924;51.398;7.088;2023-07-13T00:13:57;15.10;99.90
11736;DHT22;5924;51.398;7.088;2023-07-13T00:16:23;16.50;99.90
11736;DHT22;5924;51.398;7.088;2023-07-13T00:18:49;15.10;99.90
11736;DHT22;5924;51.398;7.088;2023-07-13T00:21:14;14.40;99.90
11736;DHT22;5924;51.398;7.088;2023-07-13T00:23:41;15.00;99.90
11736;DHT22;5924;51.398;7.088;2023-07-13T00:26:09;15.00;99.90
11736;DHT22;5924;51.398;7.088;2023-07-13T00:28:35;15.00;99.90
11736;DHT22;5924;51.398;7.088;2023-07-13T00:31:01;14.90;99.90
11736;DHT22;5924;51.398;7.088;2023-07-13T00:33:28;14.90;99.90
11736;DHT22;5924;51.398;7.088;2023-07-13T00:35:55;14.90;99.90
11736;DHT22;5924;51.398;7.088;2023-07-13T00:38:21;14.90;99.90
11736;DHT22;5924;51.398;7.088;2023-07-13T00:40:47;14.90;99.90
11736;DHT22;5924;51.398;7.088;2023-07-13T00:43:21;14.90;99.90
11736;DHT22;5924;51.398;7.088;2023-07-13T00:48:20;14.90;99.90
11736;DHT22;5924;51.398;7.088;2023-07-13T00:50:49;14.90;99.90
11736;DHT22;5924;51.398;7.088;2023-07-13T00:53:16;14.90;99.90
11736;DHT22;5924;51.398;7.088;2023-07-13T00:55:42;14.90;99.90
11736;DHT22;5924;51.398;7.088;2023-07-13T00:58:08;14.80;99.90
11736;DHT22;5924;51.398;7.088;2023-07-13T01:00:38;14.80;99.90
11736;DHT22;5924;51.398;7.088;2023-07-13T01:03:05;14.80;99.90
11736;DHT22;5924;51.398;7.088;2023-07-13T01:05:32;14.80;99.90
11736;DHT22;5924;51.398;7.088;2023-07-13T01:07:59;14.80;99.90
11736;DHT22;5924;51.398;7.088;2023-07-13T01:10:26;14.80;99.90
11736;DHT22;5924;51.398;7.088;2023-07-13T01:12:53;14.70;99.90
11736;DHT22;5924;51.398;7.088;2023-07-13T01:15:42;14.70;99.90
11736;DHT22;5924;51.398;7.088;2023-07-13T01:18:21;14.60;99.90
11736;DHT22;5924;51.398;7.088;2023-07-13T01:21:00;14.60;99.90
11736;DHT22;5924;51.398;7.088;2023-07-13T01:23:27;14.60;99.90
11736;DHT22;5924;51.398;7.088;2023-07-13T01:25:53;14.60;99.90
11736;DHT22;5924;51.398;7.088;2023-07-13T01:28:21;14.60;99.90
11736;DHT22;5924;51.398;7.088;2023-07-13T01:30:47;14.60;99.90
11736;DHT22;5924;51.398;7.088;2023-07-13T01:33:16;14.60;99.90
11736;DHT22;5924;51.398;7.088;2023-07-13T01:35:42;14.70;99.90
11736;DHT22;5924;51.398;7.088;2023-07-13T01:38:08;14.70;99.90
11736;DHT22;5924;51.398;7.088;2023-07-13T01:40:35;14.80;99.90
11736;DHT22;5924;51.398;7.088;2023-07-13T01:43:01;14.80;99.90
11736;DHT22;5924;51.398;7.088;2023-07-13T01:45:26;14.70;99.90
11736;DHT22;5924;51.398;7.088;2023-07-13T01:47:52;14.80;99.90
11736;DHT22;5924;51.398;7.088;2023-07-13T01:50:18;14.80;99.90
11736;DHT22;5924;51.398;7.088;2023-07-13T01:52:44;14.80;99.90
11736;DHT22;5924;51.398;7.088;2023-07-13T01:55:09;14.80;99.90
11736;DHT22;5924;51.398;7.088;2023-07-13T01:57:35;14.80;99.90
11736;DHT22;5924;51.398;7.088;2023-07-13T02:00:06;14.80;99.90
11736;DHT22;5924;51.398;7.088;2023-07-13T02:02:32;14.80;99.90
11736;DHT22;5924;51.398;7.088;2023-07-13T02:04:58;14.80;99.90
11736;DHT22;5924;51.398;7.088;2023-07-13T02:07:23;14.80;99.90
11736;DHT22;5924;51.398;7.088;2023-07-13T02:09:49;14.70;99.90
11736;DHT22;5924;51.398;7.088;2023-07-13T02:12:14;14.70;99.90
11736;DHT22;5924;51.398;7.088;2023-07-13T02:14:40;14.70;99.90
11736;DHT22;5924;51.398;7.088;2023-07-13T02:17:06;14.70;99.90
11736;DHT22;5924;51.398;7.088;2023-07-13T02:19:32;14.70;99.90
11736;DHT22;5924;51.398;7.088;2023-07-13T02:21:57;14.10;99.90
11736;DHT22;5924;51.398;7.088;2023-07-13T02:24:23;14.70;99.90
11736;DHT22;5924;51.398;7.088;2023-07-13T02:26:49;14.70;99.90
11736;DHT22;5924;51.398;7.088;2023-07-13T02:29:14;14.60;99.90
11736;DHT22;5924;51.398;7.088;2023-07-13T02:31:40;12.70;99.90
11736;DHT22;5924;51.398;7.088;2023-07-13T02:34:06;14.50;99.90
11736;DHT22;5924;51.398;7.088;2023-07-13T02:36:32;12.10;99.90
11736;DHT22;5924;51.398;7.088;2023-07-13T02:39:00;14.50;99.90
11736;DHT22;5924;51.398;7.088;2023-07-13T02:41:27;14.50;99.90
11736;DHT22;5924;51.398;7.088;2023-07-13T02:43:52;14.40;99.90
11736;DHT22;5924;51.398;7.088;2023-07-13T02:46:18;14.50;99.90
11736;DHT22;5924;51.398;7.088;2023-07-13T02:48:45;14.50;99.90
11736;DHT22;5924;51.398;7.088;2023-07-13T02:51:11;14.50;99.90
11736;DHT22;5924;51.398;7.088;2023-07-13T02:53:37;14.50;99.90
11736;DHT22;5924;51.398;7.088;2023-07-13T02:56:04;14.40;99.90
11736;DHT22;5924;51.398;7.088;2023-07-13T02:58:30;14.40;99.90
11736;DHT22;5924;51.398;7.088;2023-07-13T03:00:56;14.40;99.90
11736;DHT22;5924;51.398;7.088;2023-07-13T03:03:23;14.30;99.90
11736;DHT22;5924;51.398;7.088;2023-07-13T03:05:58;14.30;99.90
11736;DHT22;5924;51.398;7.088;2023-07-13T03:08:25;14.30;99.90
11736;DHT22;5924;51.398;7.088;2023-07-13T03:11:06;14.30;99.90
11736;DHT22;5924;51.398;7.088;2023-07-13T03:13:32;14.30;99.90
11736;DHT22;5924;51.398;7.088;2023-07-13T03:15:58;14.30;99.90
11736;DHT22;5924;51.398;7.088;2023-07-13T03:18:26;14.30;99.90
11736;DHT22;5924;51.398;7.088;2023-07-13T03:20:53;14.30;99.90
11736;DHT22;5924;51.398;7.088;2023-07-13T03:23:20;14.20;99.90
11736;DHT22;5924;51.398;7.088;2023-07-13T03:25:46;14.20;99.90
11736;DHT22;5924;51.398;7.088;2023-07-13T03:28:12;14.20;99.90
11736;DHT22;5924;51.398;7.088;2023-07-13T03:30:38;14.20;99.90
11736;DHT22;5924;51.398;7.088;2023-07-13T03:33:04;14.20;99.90
11736;DHT22;5924;51.398;7.088;2023-07-13T03:35:30;14.20;99.90
11736;DHT22;5924;51.398;7.088;2023-07-13T03:37:55;14.20;99.90
11736;DHT22;5924;51.398;7.088;2023-07-13T03:40:22;14.20;99.90
11736;DHT22;5924;51.398;7.088;2023-07-13T03:42:48;14.20;99.90
11736;DHT22;5924;51.398;7.088;2023-07-13T03:45:13;14.30;99.90
11736;DHT22;5924;51.398;7.088;2023-07-13T03:47:39;14.30;99.90
11736;DHT22;5924;51.398;7.088;2023-07-13T03:50:05;14.30;99.90
11736;DHT22;5924;51.398;7.088;2023-07-13T03:52:31;14.30;99.90
11736;DHT22;5924;51.398;7.088;2023-07-13T03:54:56;14.30;99.90
11736;DHT22;5924;51.398;7.088;2023-07-13T03:57:22;14.30;99.90
11736;DHT22;5924;51.398;7.088;2023-07-13T03:59:48;14.30;99.90
11736;DHT22;5924;51.398;7.088;2023-07-13T04:02:14;14.30;99.90
11736;DHT22;5924;51.398;7.088;2023-07-13T04:04:39;14.40;99.90
11736;DHT22;5924;51.398;7.088;2023-07-13T04:07:06;14.40;99.90
11736;DHT22;5924;51.398;7.088;2023-07-13T04:09:34;14.40;99.90
11736;DHT22;5924;51.398;7.088;2023-07-13T04:11:59;14.50;99.90
11736;DHT22;5924;51.398;7.088;2023-07-13T04:14:25;14.50;99.90
11736;DHT22;5924;51.398;7.088;2023-07-13T04:16:51;14.50;99.90
11736;DHT22;5924;51.398;7.088;2023-07-13T04:19:17;14.50;99.90
11736;DHT22;5924;51.398;7.088;2023-07-13T04:21:43;14.50;99.90
11736;DHT22;5924;51.398;7.088;2023-07-13T04:24:08;14.50;99.90
11736;DHT22;5924;51.398;7.088;2023-07-13T04:26:34;14.60;99.90
11736;DHT22;5924;51.398;7.088;2023-07-13T04:29:01;14.60;99.90
11736;DHT22;5924;51.398;7.088;2023-07-13T04:31:29;14.60;99.90
11736;DHT22;5924;51.398;7.088;2023-07-13T04:33:55;14.60;99.90
11736;DHT22;5924;51.398;7.088;2023-07-13T04:36:21;14.60;99.90
11736;DHT22;5924;51.398;7.088;2023-07-13T04:38:47;14.60;99.90
11736;DHT22;5924;51.398;7.088;2023-07-13T04:41:13;14.60;99.90
11736;DHT22;5924;51.398;7.088;2023-07-13T04:43:40;14.60;99.90
11736;DHT22;5924;51.398;7.088;2023-07-13T04:46:08;14.60;99.90
11736;DHT22;5924;51.398;7.088;2023-07-13T04:48:34;14.60;99.90
11736;DHT22;5924;51.398;7.088;2023-07-13T04:51:00;14.70;99.90
11736;DHT22;5924;51.398;7.088;2023-07-13T04:53:27;14.70;99.90
11736;DHT22;5924;51.398;7.088;2023-07-13T04:55:53;14.70;99.90
11736;DHT22;5924;51.398;7.088;2023-07-13T04:58:19;14.80;99.90
11736;DHT22;5924;51.398;7.088;2023-07-13T05:00:45;14.90;99.90
11736;DHT22;5924;51.398;7.088;2023-07-13T05:03:10;15.00;99.90
11736;DHT22;5924;51.398;7.088;2023-07-13T05:05:36;15.10;99.90
11736;DHT22;5924;51.398;7.088;2023-07-13T05:08:02;15.20;99.90
11736;DHT22;5924;51.398;7.088;2023-07-13T05:10:28;15.40;99.90
11736;DHT22;5924;51.398;7.088;2023-07-13T05:12:53;15.50;99.90
11736;DHT22;5924;51.398;7.088;2023-07-13T05:15:22;15.60;99.90
11736;DHT22;5924;51.398;7.088;2023-07-13T05:17:48;15.60;99.90
11736;DHT22;5924;51.398;7.088;2023-07-13T05:20:15;15.70;99.90
11736;DHT22;5924;51.398;7.088;2023-07-13T05:22:41;15.70;99.90
11736;DHT22;5924;51.398;7.088;2023-07-13T05:25:07;15.80;99.90
11736;DHT22;5924;51.398;7.088;2023-07-13T05:27:34;15.80;99.90
11736;DHT22;5924;51.398;7.088;2023-07-13T05:30:00;15.90;99.90
11736;DHT22;5924;51.398;7.088;2023-07-13T05:32:26;15.90;99.90
11736;DHT22;5924;51.398;7.088;2023-07-13T05:34:51;15.90;99.90
11736;DHT22;5924;51.398;7.088;2023-07-13T05:37:17;16.10;99.90
11736;DHT22;5924;51.398;7.088;2023-07-13T05:39:43;16.20;99.90
11736;DHT22;5924;51.398;7.088;2023-07-13T05:42:09;16.40;99.90
11736;DHT22;5924;51.398;7.088;2023-07-13T05:44:34;16.40;99.90
11736;DHT22;5924;51.398;7.088;2023-07-13T05:47:00;16.40;99.90
11736;DHT22;5924;51.398;7.088;2023-07-13T05:49:26;16.40;99.90
11736;DHT22;5924;51.398;7.088;2023-07-13T05:51:52;16.30;99.90
11736;DHT22;5924;51.398;7.088;2023-07-13T05:54:18;16.30;99.90
11736;DHT22;5924;51.398;7.088;2023-07-13T05:56:44;16.20;99.90
11736;DHT22;5924;51.398;7.088;2023-07-13T05:59:10;16.20;99.90
11736;DHT22;5924;51.398;7.088;2023-07-13T06:01:35;16.20;99.90
11736;DHT22;5924;51.398;7.088;2023-07-13T06:04:01;16.20;99.90
11736;DHT22;5924;51.398;7.088;2023-07-13T06:06:27;16.20;99.90
11736;DHT22;5924;51.398;7.088;2023-07-13T06:08:52;16.20;99.90
11736;DHT22;5924;51.398;7.088;2023-07-13T06:11:20;16.20;99.90
11736;DHT22;5924;51.398;7.088;2023-07-13T06:13:47;16.20;99.90
11736;DHT22;5924;51.398;7.088;2023-07-13T06:16:13;16.20;99.90
11736;DHT22;5924;51.398;7.088;2023-07-13T06:18:40;16.10;99.90
11736;DHT22;5924;51.398;7.088;2023-07-13T06:21:15;16.10;99.90
11736;DHT22;5924;51.398;7.088;2023-07-13T06:23:41;16.00;99.90
11736;DHT22;5924;51.398;7.088;2023-07-13T06:26:07;16.00;99.90
11736;DHT22;5924;51.398;7.088;2023-07-13T06:28:34;16.10;99.90
11736;DHT22;5924;51.398;7.088;2023-07-13T06:31:00;16.10;99.90
11736;DHT22;5924;51.398;7.088;2023-07-13T06:33:26;16.10;99.90
11736;DHT22;5924;51.398;7.088;2023-07-13T06:35:51;16.20;99.90
11736;DHT22;5924;51.398;7.088;2023-07-13T06:38:17;16.20;99.90
11736;DHT22;5924;51.398;7.088;2023-07-13T06:40:43;16.20;99.90
11736;DHT22;5924;51.398;7.088;2023-07-13T06:43:08;16.20;99.90
11736;DHT22;5924;51.398;7.088;2023-07-13T06:45:44;16.20;99.90
11736;DHT22;5924;51.398;7.088;2023-07-13T06:48:15;16.30;99.90
11736;DHT22;5924;51.398;7.088;2023-07-13T06:50:42;16.30;99.90
11736;DHT22;5924;51.398;7.088;2023-07-13T06:53:09;16.40;99.90
11736;DHT22;5924;51.398;7.088;2023-07-13T06:55:35;16.40;99.90
11736;DHT22;5924;51.398;7.088;2023-07-13T06:58:01;16.50;99.90
11736;DHT22;5924;51.398;7.088;2023-07-13T07:00:27;16.60;99.90
11736;DHT22;5924;51.398;7.088;2023-07-13T07:02:52;16.60;99.90
11736;DHT22;5924;51.398;7.088;2023-07-13T07:05:18;18.00;99.90
11736;DHT22;5924;51.398;7.088;2023-07-13T07:07:47;16.70;99.90
11736;DHT22;5924;51.398;7.088;2023-07-13T07:10:13;16.80;99.90
11736;DHT22;5924;51.398;7.088;2023-07-13T07:12:38;16.90;99.90
11736;DHT22;5924;51.398;7.088;2023-07-13T07:15:04;17.00;99.90
11736;DHT22;5924;51.398;7.088;2023-07-13T07:17:30;17.10;99.90
11736;DHT22;5924;51.398;7.088;2023-07-13T07:19:56;17.30;99.90
11736;DHT22;5924;51.398;7.088;2023-07-13T07:22:21;17.50;99.90
11736;DHT22;5924;51.398;7.088;2023-07-13T07:24:47;17.60;99.90
11736;DHT22;5924;51.398;7.088;2023-07-13T07:27:13;17.80;99.90
11736;DHT22;5924;51.398;7.088;2023-07-13T07:29:38;18.00;99.90
11736;DHT22;5924;51.398;7.088;2023-07-13T07:32:04;18.00;99.90
11736;DHT22;5924;51.398;7.088;2023-07-13T07:34:30;18.20;99.90
11736;DHT22;5924;51.398;7.088;2023-07-13T07:36:59;18.30;99.90
11736;DHT22;5924;51.398;7.088;2023-07-13T07:39:26;18.20;99.90
11736;DHT22;5924;51.398;7.088;2023-07-13T07:41:52;18.20;99.90
11736;DHT22;5924;51.398;7.088;2023-07-13T07:44:18;18.20;99.90
11736;DHT22;5924;51.398;7.088;2023-07-13T07:46:43;18.20;99.90
11736;DHT22;5924;51.398;7.088;2023-07-13T07:49:09;18.10;99.90
11736;DHT22;5924;51.398;7.088;2023-07-13T07:51:36;18.00;99.90
11736;DHT22;5924;51.398;7.088;2023-07-13T07:54:02;18.00;99.90
11736;DHT22;5924;51.398;7.088;2023-07-13T07:56:28;18.00;99.90
11736;DHT22;5924;51.398;7.088;2023-07-13T07:58:54;18.10;99.90
11736;DHT22;5924;51.398;7.088;2023-07-13T08:01:19;18.20;99.90
11736;DHT22;5924;51.398;7.088;2023-07-13T08:03:45;18.30;99.90
11736;DHT22;5924;51.398;7.088;2023-07-13T08:06:10;18.30;99.90
11736;DHT22;5924;51.398;7.088;2023-07-13T08:08:36;18.40;99.90
11736;DHT22;5924;51.398;7.088;2023-07-13T08:11:03;18.40;99.90
11736;DHT22;5924;51.398;7.088;2023-07-13T08:13:29;18.40;99.90
11736;DHT22;5924;51.398;7.088;2023-07-13T08:15:55;18.40;99.90
11736;DHT22;5924;51.398;7.088;2023-07-13T08:18:20;18.40;99.90
11736;DHT22;5924;51.398;7.088;2023-07-13T08:20:46;18.40;99.90
11736;DHT22;5924;51.398;7.088;2023-07-13T08:23:12;18.60;99.90
11736;DHT22;5924;51.398;7.088;2023-07-13T08:25:37;18.80;99.90
11736;DHT22;5924;51.398;7.088;2023-07-13T08:28:04;19.00;99.90
11736;DHT22;5924;51.398;7.088;2023-07-13T08:30:29;19.10;99.90
11736;DHT22;5924;51.398;7.088;2023-07-13T08:32:55;19.00;99.90
11736;DHT22;5924;51.398;7.088;2023-07-13T08:35:21;18.90;99.90
11736;DHT22;5924;51.398;7.088;2023-07-13T08:37:46;19.00;99.90
11736;DHT22;5924;51.398;7.088;2023-07-13T08:40:13;19.00;99.90
11736;DHT22;5924;51.398;7.088;2023-07-13T08:42:44;19.00;99.90
11736;DHT22;5924;51.398;7.088;2023-07-13T08:45:21;19.20;99.90
11736;DHT22;5924;51.398;7.088;2023-07-13T08:47:53;19.50;99.90
11736;DHT22;5924;51.398;7.088;2023-07-13T08:50:25;19.90;99.90
11736;DHT22;5924;51.398;7.088;2023-07-13T08:52:55;20.20;99.90
11736;DHT22;5924;51.398;7.088;2023-07-13T08:55:24;20.40;99.90
11736;DHT22;5924;51.398;7.088;2023-07-13T08:58:00;20.60;99.90
11736;DHT22;5924;51.398;7.088;2023-07-13T09:00:44;20.90;99.90
11736;DHT22;5924;51.398;7.088;2023-07-13T09:04:16;21.10;99.90
11736;DHT22;5924;51.398;7.088;2023-07-13T09:06:28;21.10;99.90
11736;DHT22;5924;51.398;7.088;2023-07-13T09:09:01;20.80;99.90
11736;DHT22;5924;51.398;7.088;2023-07-13T09:16:40;20.50;99.90
11736;DHT22;5924;51.398;7.088;2023-07-13T09:19:20;20.40;99.90
11736;DHT22;5924;51.398;7.088;2023-07-13T09:21:47;20.40;99.90
11736;DHT22;5924;51.398;7.088;2023-07-13T09:24:34;20.60;99.90
11736;DHT22;5924;51.398;7.088;2023-07-13T09:27:27;20.50;99.90
11736;DHT22;5924;51.398;7.088;2023-07-13T09:29:57;20.70;99.90
11736;DHT22;5924;51.398;7.088;2023-07-13T09:32:24;21.00;99.90
11736;DHT22;5924;51.398;7.088;2023-07-13T09:34:52;21.30;99.90
11736;DHT22;5924;51.398;7.088;2023-07-13T09:37:21;21.50;99.90
11736;DHT22;5924;51.398;7.088;2023-07-13T09:39:49;21.60;99.90
11736;DHT22;5924;51.398;7.088;2023-07-13T09:42:18;21.70;99.90
11736;DHT22;5924;51.398;7.088;2023-07-13T09:44:59;21.90;99.90
11736;DHT22;5924;51.398;7.088;2023-07-13T09:47:30;21.80;99.90
11736;DHT22;5924;51.398;7.088;2023-07-13T09:50:03;21.50;99.90
11736;DHT22;5924;51.398;7.088;2023-07-13T09:52:49;21.30;99.90
11736;DHT22;5924;51.398;7.088;2023-07-13T09:55:37;21.10;99.90
11736;DHT22;5924;51.398;7.088;2023-07-13T09:58:15;21.20;99.90
11736;DHT22;5924;51.398;7.088;2023-07-13T10:00:42;21.50;99.90
11736;DHT22;5924;51.398;7.088;2023-07-13T10:03:21;21.70;99.90
11736;DHT22;5924;51.398;7.088;2023-07-13T10:05:49;21.80;99.90
11736;DHT22;5924;51.398;7.088;2023-07-13T10:08:27;21.80;99.90
11736;DHT22;5924;51.398;7.088;2023-07-13T10:10:58;22.10;99.90
11736;DHT22;5924;51.398;7.088;2023-07-13T10:13:34;22.20;99.90
11736;DHT22;5924;51.398;7.088;2023-07-13T10:16:03;22.20;99.90
11736;DHT22;5924;51.398;7.088;2023-07-13T10:18:35;22.30;99.90
11736;DHT22;5924;51.398;7.088;2023-07-13T10:21:18;22.60;99.90
11736;DHT22;5924;51.398;7.088;2023-07-13T10:23:48;22.90;99.90
11736;DHT22;5924;51.398;7.088;2023-07-13T10:26:20;23.30;99.90
11736;DHT22;5924;51.398;7.088;2023-07-13T10:28:54;23.60;99.90
11736;DHT22;5924;51.398;7.088;2023-07-13T10:31:21;23.80;99.90
11736;DHT22;5924;51.398;7.088;2023-07-13T10:33:48;23.70;99.90
11736;DHT22;5924;51.398;7.088;2023-07-13T10:36:28;23.60;99.90
11736;DHT22;5924;51.398;7.088;2023-07-13T10:38:55;23.50;99.90
11736;DHT22;5924;51.398;7.088;2023-07-13T10:41:24;23.00;99.90
11736;DHT22;5924;51.398;7.088;2023-07-13T10:43:53;22.80;99.90
11736;DHT22;5924;51.398;7.088;2023-07-13T10:46:24;22.60;99.90
11736;DHT22;5924;51.398;7.088;2023-07-13T10:48:58;22.40;99.90
11736;DHT22;5924;51.398;7.088;2023-07-13T10:51:24;22.30;99.90
11736;DHT22;5924;51.398;7.088;2023-07-13T10:54:26;22.50;99.90
11736;DHT22;5924;51.398;7.088;2023-07-13T10:57:20;22.70;99.90
11736;DHT22;5924;51.398;7.088;2023-07-13T11:00:33;22.50;99.90
11736;DHT22;5924;51.398;7.088;2023-07-13T11:02:34;22.20;99.90
11736;DHT22;5924;51.398;7.088;2023-07-13T11:05:33;22.00;99.90
11736;DHT22;5924;51.398;7.088;2023-07-13T11:10:56;22.10;99.90
11736;DHT22;5924;51.398;7.088;2023-07-13T11:21:28;22.30;99.90
11736;DHT22;5924;51.398;7.088;2023-07-13T11:24:15;22.20;99.90
11736;DHT22;5924;51.398;7.088;2023-07-13T11:29:33;22.30;99.90
11736;DHT22;5924;51.398;7.088;2023-07-13T11:32:01;22.50;99.90
11736;DHT22;5924;51.398;7.088;2023-07-13T11:34:46;22.60;99.90
11736;DHT22;5924;51.398;7.088;2023-07-13T11:37:16;22.50;99.90
11736;DHT22;5924;51.398;7.088;2023-07-13T11:39:44;22.40;99.90
11736;DHT22;5924;51.398;7.088;2023-07-13T11:42:17;22.50;99.90
11736;DHT22;5924;51.398;7.088;2023-07-13T11:44:48;22.60;99.90
11736;DHT22;5924;51.398;7.088;2023-07-13T11:47:19;22.90;99.90
11736;DHT22;5924;51.398;7.088;2023-07-13T11:49:55;23.60;99.90
11736;DHT22;5924;51.398;7.088;2023-07-13T11:52:34;24.10;99.90
11736;DHT22;5924;51.398;7.088;2023-07-13T11:55:02;24.10;99.90
11736;DHT22;5924;51.398;7.088;2023-07-13T11:57:32;24.10;99.90
11736;DHT22;5924;51.398;7.088;2023-07-13T12:00:02;24.30;99.90
11736;DHT22;5924;51.398;7.088;2023-07-13T12:02:32;24.60;99.90
11736;DHT22;5924;51.398;7.088;2023-07-13T12:05:00;25.00;99.90
11736;DHT22;5924;51.398;7.088;2023-07-13T12:07:29;25.20;99.90
11736;DHT22;5924;51.398;7.088;2023-07-13T12:10:03;25.00;99.90
11736;DHT22;5924;51.398;7.088;2023-07-13T12:12:36;23.90;99.90
11736;DHT22;5924;51.398;7.088;2023-07-13T12:15:06;24.90;99.90
11736;DHT22;5924;51.398;7.088;2023-07-13T12:17:34;25.20;99.90
11736;DHT22;5924;51.398;7.088;2023-07-13T12:20:03;25.60;99.90
11736;DHT22;5924;51.398;7.088;2023-07-13T12:22:32;26.10;99.90
11736;DHT22;5924;51.398;7.088;2023-07-13T12:24:59;25.80;99.90
11736;DHT22;5924;51.398;7.088;2023-07-13T12:27:27;25.30;99.90
11736;DHT22;5924;51.398;7.088;2023-07-13T12:30:05;24.80;99.90
11736;DHT22;5924;51.398;7.088;2023-07-13T12:32:31;24.90;99.90
11736;DHT22;5924;51.398;7.088;2023-07-13T12:35:14;25.10;99.90
11736;DHT22;5924;51.398;7.088;2023-07-13T12:37:45;25.60;99.90
11736;DHT22;5924;51.398;7.088;2023-07-13T12:40:19;26.00;99.90
11736;DHT22;5924;51.398;7.088;2023-07-13T12:42:47;26.20;99.90
11736;DHT22;5924;51.398;7.088;2023-07-13T12:45:22;26.60;99.90
11736;DHT22;5924;51.398;7.088;2023-07-13T12:47:53;27.30;99.90
11736;DHT22;5924;51.398;7.088;2023-07-13T12:50:22;26.70;99.90
11736;DHT22;5924;51.398;7.088;2023-07-13T12:52:53;26.30;99.90
11736;DHT22;5924;51.398;7.088;2023-07-13T12:55:20;25.90;99.90
11736;DHT22;5924;51.398;7.088;2023-07-13T13:00:35;25.90;99.90
11736;DHT22;5924;51.398;7.088;2023-07-13T13:05:48;25.60;99.90
11736;DHT22;5924;51.398;7.088;2023-07-13T13:08:14;25.70;99.90
11736;DHT22;5924;51.398;7.088;2023-07-13T13:10:40;24.90;99.90
11736;DHT22;5924;51.398;7.088;2023-07-13T13:13:06;24.20;99.90
11736;DHT22;5924;51.398;7.088;2023-07-13T13:15:32;23.60;99.90
11736;DHT22;5924;51.398;7.088;2023-07-13T13:17:58;23.10;99.90
11736;DHT22;5924;51.398;7.088;2023-07-13T13:20:24;22.50;99.90
11736;DHT22;5924;51.398;7.088;2023-07-13T13:22:51;22.10;99.90
11736;DHT22;5924;51.398;7.088;2023-07-13T13:25:18;21.80;99.90
11736;DHT22;5924;51.398;7.088;2023-07-13T13:27:45;21.50;99.90
11736;DHT22;5924;51.398;7.088;2023-07-13T13:30:13;21.40;99.90
11736;DHT22;5924;51.398;7.088;2023-07-13T13:32:40;21.40;99.90
11736;DHT22;5924;51.398;7.088;2023-07-13T13:35:13;21.70;99.90
11736;DHT22;5924;51.398;7.088;2023-07-13T13:37:39;22.10;99.90
11736;DHT22;5924;51.398;7.088;2023-07-13T13:40:15;22.50;99.90
11736;DHT22;5924;51.398;7.088;2023-07-13T13:42:41;22.90;99.90
11736;DHT22;5924;51.398;7.088;2023-07-13T13:45:09;23.70;99.90
11736;DHT22;5924;51.398;7.088;2023-07-13T13:47:35;24.60;99.90
11736;DHT22;5924;51.398;7.088;2023-07-13T13:50:09;25.60;99.90
11736;DHT22;5924;51.398;7.088;2023-07-13T13:52:35;26.70;99.90
11736;DHT22;5924;51.398;7.088;2023-07-13T13:55:00;27.10;99.90
11736;DHT22;5924;51.398;7.088;2023-07-13T13:57:26;27.00;99.90
11736;DHT22;5924;51.398;7.088;2023-07-13T13:59:52;26.80;99.90
11736;DHT22;5924;51.398;7.088;2023-07-13T14:02:25;26.70;99.90
11736;DHT22;5924;51.398;7.088;2023-07-13T14:04:56;26.30;99.90
11736;DHT22;5924;51.398;7.088;2023-07-13T14:07:22;25.40;99.90
11736;DHT22;5924;51.398;7.088;2023-07-13T14:09:48;24.30;99.90
11736;DHT22;5924;51.398;7.088;2023-07-13T14:12:14;23.40;99.90
11736;DHT22;5924;51.398;7.088;2023-07-13T14:14:39;22.80;99.90
11736;DHT22;5924;51.398;7.088;2023-07-13T14:17:19;22.20;99.90
11736;DHT22;5924;51.398;7.088;2023-07-13T14:19:48;21.80;99.90
11736;DHT22;5924;51.398;7.088;2023-07-13T14:22:17;21.60;99.90
11736;DHT22;5924;51.398;7.088;2023-07-13T14:24:43;21.90;99.90
11736;DHT22;5924;51.398;7.088;2023-07-13T14:27:10;22.10;99.90
11736;DHT22;5924;51.398;7.088;2023-07-13T14:29:36;22.10;99.90
11736;DHT22;5924;51.398;7.088;2023-07-13T14:32:02;21.80;99.90
11736;DHT22;5924;51.398;7.088;2023-07-13T14:34:28;21.70;99.90
11736;DHT22;5924;51.398;7.088;2023-07-13T14:36:53;21.90;99.90
11736;DHT22;5924;51.398;7.088;2023-07-13T14:39:24;22.50;99.90
11736;DHT22;5924;51.398;7.088;2023-07-13T14:41:55;23.10;99.90
11736;DHT22;5924;51.398;7.088;2023-07-13T14:44:29;22.90;99.90
11736;DHT22;5924;51.398;7.088;2023-07-13T14:46:56;22.40;99.90
11736;DHT22;5924;51.398;7.088;2023-07-13T14:52:03;23.20;99.90
11736;DHT22;5924;51.398;7.088;2023-07-13T14:54:31;23.60;99.90
11736;DHT22;5924;51.398;7.088;2023-07-13T14:56:56;23.30;99.90
11736;DHT22;5924;51.398;7.088;2023-07-13T14:59:22;23.00;99.90
11736;DHT22;5924;51.398;7.088;2023-07-13T15:01:49;22.60;99.90
11736;DHT22;5924;51.398;7.088;2023-07-13T15:04:15;22.20;99.90
11736;DHT22;5924;51.398;7.088;2023-07-13T15:07:01;22.40;99.90
11736;DHT22;5924;51.398;7.088;2023-07-13T15:09:28;23.50;99.90
11736;DHT22;5924;51.398;7.088;2023-07-13T15:11:58;24.90;99.90
11736;DHT22;5924;51.398;7.088;2023-07-13T15:14:24;25.80;99.90
11736;DHT22;5924;51.398;7.088;2023-07-13T15:16:52;25.90;99.90
11736;DHT22;5924;51.398;7.088;2023-07-13T15:19:19;25.20;99.90
11736;DHT22;5924;51.398;7.088;2023-07-13T15:21:45;24.50;99.90
11736;DHT22;5924;51.398;7.088;2023-07-13T15:24:11;23.90;99.90
11736;DHT22;5924;51.398;7.088;2023-07-13T15:26:37;23.30;99.90
11736;DHT22;5924;51.398;7.088;2023-07-13T15:29:04;22.70;99.90
11736;DHT22;5924;51.398;7.088;2023-07-13T15:31:32;22.20;99.90
11736;DHT22;5924;51.398;7.088;2023-07-13T15:33:59;21.80;99.90
11736;DHT22;5924;51.398;7.088;2023-07-13T15:36:25;21.50;99.90
11736;DHT22;5924;51.398;7.088;2023-07-13T15:38:53;21.20;99.90
11736;DHT22;5924;51.398;7.088;2023-07-13T15:41:22;20.80;99.90
11736;DHT22;5924;51.398;7.088;2023-07-13T15:43:53;20.60;99.90
11736;DHT22;5924;51.398;7.088;2023-07-13T15:46:20;20.40;99.90
11736;DHT22;5924;51.398;7.088;2023-07-13T15:48:47;20.10;99.90
11736;DHT22;5924;51.398;7.088;2023-07-13T15:51:34;19.80;99.90
11736;DHT22;5924;51.398;7.088;2023-07-13T15:54:02;19.30;99.90
11736;DHT22;5924;51.398;7.088;2023-07-13T15:56:34;19.00;99.90
11736;DHT22;5924;51.398;7.088;2023-07-13T15:59:00;18.80;99.90
11736;DHT22;5924;51.398;7.088;2023-07-13T16:01:26;18.70;99.90
11736;DHT22;5924;51.398;7.088;2023-07-13T16:03:52;18.60;99.90
11736;DHT22;5924;51.398;7.088;2023-07-13T16:06:24;18.60;99.90
11736;DHT22;5924;51.398;7.088;2023-07-13T16:08:52;18.90;99.90
11736;DHT22;5924;51.398;7.088;2023-07-13T16:11:24;19.40;99.90
11736;DHT22;5924;51.398;7.088;2023-07-13T16:13:51;19.70;99.90
11736;DHT22;5924;51.398;7.088;2023-07-13T16:16:21;20.00;99.90
11736;DHT22;5924;51.398;7.088;2023-07-13T16:18:53;20.00;99.90
11736;DHT22;5924;51.398;7.088;2023-07-13T16:21:24;20.00;99.90
11736;DHT22;5924;51.398;7.088;2023-07-13T16:23:51;19.90;99.90
11736;DHT22;5924;51.398;7.088;2023-07-13T16:26:37;19.80;99.90